Time;durP1;ratioP1;P1;durP2;ratioP2;P2;SDS_P1;SDS_P2;PMS_P1;PMS_P2;Temp;Humidity;BMP_temperature;BMP_pressure;BME280_temperature;BME280_humidity;BME280_pressure;Samples;Min_cycle;Max_cycle;Signal;HPM_P1;HPM_P2
2022/09/24 00:01:15;;;;;;;7.07;5.33;;;;;;;12.63;69.17;100112.23;1647377;86;21239;-72
2022/09/24 00:03:45;;;;;;;8.50;6.00;;;;;;;12.65;69.15;100108.73;1645379;86;21289;-73
2022/09/24 00:06:17;;;;;;;6.70;6.00;;;;;;;12.65;69.15;100107.39;1676400;84;21379;-73
2022/09/24 00:08:45;;;;;;;7.15;5.92;;;;;;;12.64;69.13;100107.69;1676902;84;21922;-72
2022/09/24 00:11:12;;;;;;;7.97;6.13;;;;;;;12.64;69.14;100104.47;1675899;84;21135;-72
2022/09/24 00:13:40;;;;;;;7.13;5.50;;;;;;;12.66;69.16;100097.47;1676091;84;21348;-72
2022/09/24 00:16:10;;;;;;;7.67;5.87;;;;;;;12.71;69.10;100099.33;1659726;85;21851;-74
2022/09/24 00:18:39;;;;;;;7.17;5.65;;;;;;;12.72;69.05;100101.70;1650722;85;21411;-73
2022/09/24 00:21:18;;;;;;;7.07;5.87;;;;;;;12.74;69.09;100093.41;1677372;85;21071;-73
2022/09/24 00:23:51;;;;;;;6.53;5.53;;;;;;;12.71;68.97;100096.09;1677482;85;21386;-72
2022/09/24 00:29:07;;;;;;;7.20;5.17;;;;;;;12.76;69.08;100095.24;1667417;85;21943;-73
2022/09/24 00:31:34;;;;;;;7.77;5.70;;;;;;;12.82;69.00;100091.44;1677710;84;21250;-73
2022/09/24 00:34:02;;;;;;;6.20;5.13;;;;;;;12.79;68.81;100083.41;1675281;84;22601;-73
2022/09/24 00:36:28;;;;;;;7.10;5.97;;;;;;;12.82;68.88;100091.44;1676093;84;21417;-73
2022/09/24 00:38:57;;;;;;;6.20;5.17;;;;;;;12.79;68.88;100086.09;1676822;84;21353;-73
2022/09/24 00:41:28;;;;;;;7.33;5.80;;;;;;;12.76;68.90;100083.98;1676286;84;21355;-73
2022/09/24 00:43:55;;;;;;;6.83;6.00;;;;;;;12.71;68.96;100088.61;1675445;84;21310;-73
2022/09/24 00:46:40;;;;;;;6.93;5.63;;;;;;;12.67;69.12;100083.81;1672968;84;21320;-73
2022/09/24 00:49:12;;;;;;;6.60;5.90;;;;;;;12.70;69.24;100082.97;1676096;84;21303;-72
2022/09/24 00:51:42;;;;;;;6.73;5.80;;;;;;;12.72;69.19;100083.50;1676858;84;21810;-72
2022/09/24 00:54:12;;;;;;;7.13;5.47;;;;;;;12.72;69.09;100074.91;1676195;84;21429;-73
2022/09/24 00:56:40;;;;;;;6.47;5.40;;;;;;;12.72;69.01;100074.12;1675907;84;21790;-73
2022/09/24 00:59:08;;;;;;;7.40;5.50;;;;;;;12.71;68.97;100077.34;1711266;83;21483;-73
2022/09/24 01:01:35;;;;;;;6.17;5.50;;;;;;;12.73;68.97;100073.82;1711864;83;21401;-73
2022/09/24 01:04:01;;;;;;;7.83;5.73;;;;;;;12.69;68.78;100072.80;1708609;83;21361;-74
2022/09/24 01:06:28;;;;;;;6.63;5.67;;;;;;;12.66;68.78;100070.67;1711518;83;21339;-72
2022/09/24 01:08:56;;;;;;;8.17;5.40;;;;;;;12.65;68.82;100069.88;1712075;83;21198;-72
2022/09/24 01:11:29;;;;;;;6.40;5.30;;;;;;;12.68;68.86;100070.66;1711842;83;21379;-72
2022/09/24 01:14:26;;;;;;;5.83;5.10;;;;;;;12.68;68.86;100081.37;1711705;83;21282;-73
2022/09/24 01:17:06;;;;;;;6.40;5.13;;;;;;;12.70;68.91;100069.57;1714351;83;21315;-73
2022/09/24 01:20:00;;;;;;;8.10;5.77;;;;;;;12.71;69.00;100069.30;1712762;83;21496;-74
2022/09/24 01:23:02;;;;;;;5.90;4.93;;;;;;;12.73;68.90;100069.01;1711633;83;21332;-73
2022/09/24 01:26:05;;;;;;;6.60;4.60;;;;;;;12.74;68.69;100070.08;1710015;83;21244;-74
2022/09/24 01:28:51;;;;;;;7.27;5.13;;;;;;;12.74;68.59;100066.06;1703076;83;21209;-73
2022/09/24 01:31:23;;;;;;;6.57;5.37;;;;;;;12.71;68.40;100073.88;1710664;83;21280;-73
2022/09/24 01:33:52;;;;;;;7.73;5.13;;;;;;;12.68;68.34;100064.51;1714611;83;21301;-74
2022/09/24 01:36:20;;;;;;;6.27;4.90;;;;;;;12.65;68.31;100063.19;1713015;83;21220;-73
2022/09/24 01:38:47;;;;;;;5.93;5.10;;;;;;;12.63;68.07;100060.52;1710856;83;21326;-74
2022/09/24 01:41:14;;;;;;;5.93;4.50;;;;;;;12.58;67.92;100065.40;1711278;83;21597;-73
2022/09/24 01:43:41;;;;;;;6.13;5.30;;;;;;;12.54;67.93;100071.07;1710892;83;21067;-72
2022/09/24 01:46:09;;;;;;;5.97;4.47;;;;;;;12.49;67.86;100068.42;1712201;83;21557;-73
2022/09/24 01:48:36;;;;;;;5.10;4.40;;;;;;;12.47;67.99;100072.45;1712789;83;21402;-72
2022/09/24 01:51:11;;;;;;;5.60;4.50;;;;;;;12.49;68.00;100060.94;1711852;83;21387;-73
2022/09/24 01:53:49;;;;;;;5.20;4.27;;;;;;;12.48;67.98;100064.70;1711685;83;21642;-72
2022/09/24 01:56:24;;;;;;;5.37;4.30;;;;;;;12.48;68.00;100062.02;1711425;83;21417;-72
2022/09/24 01:59:01;;;;;;;5.30;4.37;;;;;;;12.52;68.13;100076.44;1705486;83;21297;-72
2022/09/24 02:01:33;;;;;;;7.23;4.63;;;;;;;12.55;68.07;100066.51;1711451;83;21333;-74
2022/09/24 02:04:07;;;;;;;5.62;4.37;;;;;;;12.56;68.04;100066.21;1712105;83;21639;-72
2022/09/24 02:06:39;;;;;;;6.53;4.80;;;;;;;12.58;67.96;100071.30;1713200;83;21244;-73
2022/09/24 02:09:36;;;;;;;6.30;4.50;;;;;;;12.57;67.92;100075.05;1710279;83;21282;-73
2022/09/24 02:12:15;;;;;;;5.80;4.50;;;;;;;12.56;67.90;100072.11;1711544;83;21141;-72
2022/09/24 02:14:50;;;;;;;5.67;4.20;;;;;;;12.58;67.98;100075.32;1711738;83;21398;-72
2022/09/24 02:17:18;;;;;;;5.80;4.23;;;;;;;12.57;67.96;100067.00;1710056;83;21151;-74
2022/09/24 02:19:45;;;;;;;6.53;4.27;;;;;;;12.59;68.08;100074.23;1686140;83;21331;-73
2022/09/24 02:22:12;;;;;;;5.57;4.07;;;;;;;12.59;68.12;100076.36;1712389;83;21198;-72
2022/09/24 02:24:54;;;;;;;5.37;4.37;;;;;;;12.58;68.11;100072.64;1712593;83;21409;-72
2022/09/24 02:27:21;;;;;;;6.25;4.05;;;;;;;12.57;68.13;100073.70;1710525;83;21080;-73
2022/09/24 02:29:48;;;;;;;6.30;4.37;;;;;;;12.51;68.00;100074.31;1711794;83;21592;-73
2022/09/24 02:32:17;;;;;;;5.03;4.13;;;;;;;12.51;68.06;100072.17;1709526;83;21179;-73
2022/09/24 02:34:49;;;;;;;6.43;4.50;;;;;;;12.48;68.07;100085.59;1711150;83;21275;-73
2022/09/24 02:37:19;;;;;;;5.20;4.00;;;;;;;12.48;68.08;100076.75;1683876;83;21028;-73
2022/09/24 02:39:47;;;;;;;5.10;4.20;;;;;;;12.48;68.06;100078.09;1711665;83;21352;-73
2022/09/24 02:42:16;;;;;;;5.90;4.50;;;;;;;12.47;68.09;100082.66;1676555;83;21738;-73
2022/09/24 02:44:43;;;;;;;4.77;3.50;;;;;;;12.48;68.13;100083.45;1709668;83;21423;-73
2022/09/24 02:47:10;;;;;;;7.07;4.60;;;;;;;12.48;68.08;100082.11;1711353;83;21021;-74
2022/09/24 02:49:39;;;;;;;5.70;4.10;;;;;;;12.44;68.13;100083.22;1709947;83;21150;-73
2022/09/24 02:52:11;;;;;;;6.47;4.37;;;;;;;12.45;68.21;100079.45;1711749;83;21293;-73
2022/09/24 02:54:38;;;;;;;8.03;4.97;;;;;;;12.45;68.26;100086.14;1711996;83;21444;-72
2022/09/24 02:57:05;;;;;;;6.50;4.50;;;;;;;12.46;68.25;100094.97;1712517;83;21264;-73
2022/09/24 02:59:32;;;;;;;5.50;4.50;;;;;;;12.37;68.22;100092.91;1713964;83;21249;-72
2022/09/24 03:01:59;;;;;;;5.37;4.53;;;;;;;12.36;68.31;100097.19;1713900;83;21230;-73
2022/09/24 03:04:28;;;;;;;5.40;4.03;;;;;;;12.40;68.39;100096.89;1714357;83;21257;-73
2022/09/24 03:06:55;;;;;;;6.13;4.03;;;;;;;12.42;68.40;100096.88;1712984;83;21201;-71
2022/09/24 03:09:22;;;;;;;6.27;4.73;;;;;;;12.40;68.41;100093.69;1711787;83;22067;-73
2022/09/24 03:11:49;;;;;;;6.50;4.77;;;;;;;12.35;68.37;100093.72;1704411;83;21717;-73
2022/09/24 03:14:19;;;;;;;6.70;4.90;;;;;;;12.35;68.44;100091.58;1705744;83;21310;-73
2022/09/24 03:16:46;;;;;;;8.40;5.40;;;;;;;12.33;68.48;100095.87;1713231;83;21297;-74
2022/09/24 03:19:12;;;;;;;5.97;4.80;;;;;;;12.37;68.48;100102.28;1713058;82;21403;-74
2022/09/24 03:21:39;;;;;;;5.77;4.90;;;;;;;12.39;68.49;100100.66;1707160;83;21875;-73
2022/09/24 03:24:06;;;;;;;8.90;5.47;;;;;;;12.42;68.50;100097.41;1708757;83;21191;-73
2022/09/24 03:26:32;;;;;;;5.80;5.13;;;;;;;12.42;68.42;100099.55;1709244;83;21191;-73
2022/09/24 03:28:59;;;;;;;8.47;5.07;;;;;;;12.41;68.38;100101.19;1714420;83;21412;-73
2022/09/24 03:31:26;;;;;;;7.00;5.53;;;;;;;12.42;68.45;100096.88;1711773;83;21372;-72
2022/09/24 03:33:53;;;;;;;5.50;4.97;;;;;;;12.44;68.49;100091.25;1711572;83;21329;-73
2022/09/24 03:36:22;;;;;;;8.20;5.40;;;;;;;12.48;68.45;100102.20;1709873;83;21270;-72
2022/09/24 03:38:51;;;;;;;6.67;5.10;;;;;;;12.47;68.44;100085.84;1711404;83;21284;-72
2022/09/24 03:41:17;;;;;;;5.80;4.83;;;;;;;12.46;68.43;100099.78;1711797;83;21248;-72
2022/09/24 03:43:44;;;;;;;6.10;5.23;;;;;;;12.47;68.45;100102.74;1708358;83;21189;-73
2022/09/24 03:46:11;;;;;;;6.10;5.50;;;;;;;12.40;68.37;100100.91;1709793;83;21266;-73
2022/09/24 03:48:39;;;;;;;6.17;5.43;;;;;;;12.35;68.49;100095.60;1711867;83;21785;-73
2022/09/24 03:51:11;;;;;;;7.07;4.90;;;;;;;12.32;68.54;100100.97;1711635;83;21291;-73
2022/09/24 03:53:38;;;;;;;7.20;6.15;;;;;;;12.32;68.67;100098.84;1710345;83;21646;-73
2022/09/24 03:56:05;;;;;;;6.53;5.80;;;;;;;12.28;68.67;100092.45;1711486;83;21525;-73
2022/09/24 03:58:36;;;;;;;7.23;5.90;;;;;;;12.28;68.87;100089.77;1711502;83;21633;-72
2022/09/24 04:01:03;;;;;;;6.63;5.43;;;;;;;12.28;68.85;100093.24;1712881;83;21174;-73
2022/09/24 04:03:30;;;;;;;7.67;5.20;;;;;;;12.27;68.80;100098.31;1711999;83;21138;-74
2022/09/24 04:05:57;;;;;;;6.80;5.30;;;;;;;12.25;68.79;100094.34;1712777;83;21663;-73
2022/09/24 04:08:24;;;;;;;7.37;5.53;;;;;;;12.26;68.90;100098.06;1711783;83;21401;-73
2022/09/24 04:10:54;;;;;;;5.93;5.33;;;;;;;12.27;68.89;100094.84;1711687;83;21347;-73
2022/09/24 04:13:21;;;;;;;8.17;5.40;;;;;;;12.28;68.85;100098.59;1708848;83;21278;-73
2022/09/24 04:15:50;;;;;;;5.97;5.30;;;;;;;12.27;68.84;100094.84;1711830;83;21455;-73
2022/09/24 04:18:17;;;;;;;5.87;5.27;;;;;;;12.25;68.87;100093.80;1711481;83;21202;-73
2022/09/24 04:20:44;;;;;;;5.93;5.33;;;;;;;12.24;68.84;100093.55;1710357;83;21275;-73
2022/09/24 04:23:10;;;;;;;7.67;5.03;;;;;;;12.19;68.82;100100.27;1711911;83;21143;-72
2022/09/24 04:25:39;;;;;;;9.10;5.17;;;;;;;12.11;68.79;100098.16;1711016;83;21844;-73
2022/09/24 04:28:08;;;;;;;5.67;4.83;;;;;;;12.10;68.91;100101.37;1707278;83;21247;-73
2022/09/24 04:30:34;;;;;;;6.53;5.00;;;;;;;12.12;69.09;100099.23;1711787;83;21273;-73
2022/09/24 04:33:03;;;;;;;5.47;4.60;;;;;;;12.10;69.17;100096.03;1709722;83;21273;-73
2022/09/24 04:35:31;;;;;;;4.90;4.30;;;;;;;12.11;69.29;100100.33;1711478;83;22828;-71
2022/09/24 04:37:59;;;;;;;5.67;4.63;;;;;;;12.14;69.34;100105.13;1709369;83;21198;-73
2022/09/24 04:40:26;;;;;;;5.90;4.33;;;;;;;12.20;69.25;100099.17;1709752;83;22049;-73
2022/09/24 04:42:53;;;;;;;4.93;4.07;;;;;;;12.27;69.13;100112.25;1711312;83;21804;-74
2022/09/24 04:45:20;;;;;;;5.80;4.10;;;;;;;12.34;69.00;100106.03;1712644;83;21714;-74
2022/09/24 04:47:56;;;;;;;5.47;3.97;;;;;;;12.40;68.85;100108.94;1713816;83;21702;-73
2022/09/24 04:50:29;;;;;;;5.40;3.97;;;;;;;12.42;68.68;100106.79;1711555;83;21836;-74
2022/09/24 04:52:56;;;;;;;4.57;3.73;;;;;;;12.45;68.47;100108.91;1686727;83;21165;-74
2022/09/24 04:55:22;;;;;;;8.00;4.03;;;;;;;12.43;68.36;100110.52;1710767;83;21228;-73
2022/09/24 04:57:49;;;;;;;5.70;4.20;;;;;;;12.43;68.30;100113.19;1711454;83;21354;-73
2022/09/24 05:00:19;;;;;;;5.97;4.20;;;;;;;12.45;68.25;100112.92;1709240;83;21952;-73
2022/09/24 05:02:46;;;;;;;4.97;4.00;;;;;;;12.50;68.28;100110.20;1709392;83;21875;-73
2022/09/24 05:05:14;;;;;;;7.37;4.17;;;;;;;12.56;68.22;100113.64;1711765;83;21897;-72
2022/09/24 05:07:40;;;;;;;5.23;4.27;;;;;;;12.58;68.10;100096.20;1710632;83;21356;-74
2022/09/24 05:10:08;;;;;;;7.50;4.57;;;;;;;12.63;67.89;100104.19;1710034;83;21337;-73
2022/09/24 05:12:35;;;;;;;6.20;4.20;;;;;;;12.66;67.82;100104.17;1705496;83;21279;-73
2022/09/24 05:15:03;;;;;;;5.53;3.80;;;;;;;12.67;67.65;100106.59;1711061;83;21344;-73
2022/09/24 05:17:31;;;;;;;7.83;4.30;;;;;;;12.68;67.61;100107.38;1710679;83;21267;-74
2022/09/24 05:20:00;;;;;;;4.67;3.67;;;;;;;12.72;67.52;100107.07;1711953;83;21287;-74
2022/09/24 05:22:26;;;;;;;4.90;4.10;;;;;;;12.73;67.41;100101.95;1711599;83;21331;-73
2022/09/24 05:24:55;;;;;;;6.03;3.80;;;;;;;12.71;67.23;100111.38;1710021;83;21360;-74
2022/09/24 05:27:22;;;;;;;4.97;3.90;;;;;;;12.68;67.20;100109.52;1711668;83;21286;-74
2022/09/24 05:29:50;;;;;;;4.83;3.90;;;;;;;12.66;67.15;100108.98;1711696;83;21048;-73
2022/09/24 05:32:18;;;;;;;5.40;3.90;;;;;;;12.67;67.14;100109.27;1711436;83;21300;-73
2022/09/24 05:34:45;;;;;;;5.63;4.17;;;;;;;12.72;67.17;100119.13;1712409;83;21352;-73
2022/09/24 05:37:13;;;;;;;4.53;3.93;;;;;;;12.73;67.12;100112.67;1708430;83;21363;-74
2022/09/24 05:39:39;;;;;;;4.93;3.77;;;;;;;12.77;67.03;100115.08;1710835;83;21354;-73
2022/09/24 05:42:13;;;;;;;5.30;3.90;;;;;;;12.78;66.76;100116.66;1710116;83;21410;-73
2022/09/24 05:44:41;;;;;;;6.83;3.83;;;;;;;12.78;66.64;100109.97;1711560;83;21737;-73
2022/09/24 05:47:08;;;;;;;4.97;3.60;;;;;;;12.82;66.79;100107.52;1708246;83;21377;-73
2022/09/24 05:49:38;;;;;;;5.00;3.80;;;;;;;12.87;66.68;100109.62;1711964;83;21287;-72
2022/09/24 05:52:05;;;;;;;4.23;3.80;;;;;;;12.97;66.65;100107.92;1712526;83;21316;-72
2022/09/24 05:54:33;;;;;;;4.43;3.57;;;;;;;13.02;66.35;100103.83;1712447;83;21335;-73
2022/09/24 05:57:00;;;;;;;6.07;3.63;;;;;;;13.06;66.14;100104.34;1712370;83;21170;-73
2022/09/24 05:59:27;;;;;;;5.10;3.80;;;;;;;13.08;66.03;100103.50;1711847;83;21930;-73
2022/09/24 06:01:53;;;;;;;4.13;3.27;;;;;;;13.15;66.01;100098.59;1711695;83;21699;-74
2022/09/24 06:04:20;;;;;;;5.33;3.23;;;;;;;13.22;65.79;100106.29;1707889;83;21708;-73
2022/09/24 06:06:48;;;;;;;4.30;3.10;;;;;;;13.27;65.70;100101.46;1711295;83;21319;-74
2022/09/24 06:09:14;;;;;;;4.70;2.87;;;;;;;13.32;65.45;100108.89;1711638;83;21374;-73
2022/09/24 06:11:43;;;;;;;4.03;3.07;;;;;;;13.44;64.87;100106.36;1711435;83;21352;-71
2022/09/24 06:14:11;;;;;;;4.90;2.80;;;;;;;13.38;64.83;100113.66;1711906;83;21924;-72
2022/09/24 06:16:38;;;;;;;4.43;3.23;;;;;;;13.40;64.91;100115.52;1711117;83;21356;-73
2022/09/24 06:19:05;;;;;;;4.90;2.80;;;;;;;13.44;64.87;100113.06;1713724;83;21231;-74
2022/09/24 06:21:32;;;;;;;4.20;2.87;;;;;;;13.48;64.82;100118.91;1712604;83;21367;-73
2022/09/24 06:23:58;;;;;;;5.30;3.10;;;;;;;13.52;64.62;100125.83;1711625;83;21154;-74
2022/09/24 06:26:26;;;;;;;4.17;2.90;;;;;;;13.53;64.46;100118.06;1711657;83;21381;-73
2022/09/24 06:28:53;;;;;;;11.93;3.63;;;;;;;13.60;64.43;100122.53;1711489;83;21322;-73
2022/09/24 06:31:19;;;;;;;10.43;3.67;;;;;;;13.64;64.10;100122.20;1711568;83;21304;-74
2022/09/24 06:33:46;;;;;;;20.43;4.60;;;;;;;13.67;63.84;100135.05;1710037;83;21295;-73
2022/09/24 06:36:13;;;;;;;5.50;3.37;;;;;;;13.65;63.62;100133.73;1708652;83;21984;-74
2022/09/24 06:38:40;;;;;;;4.20;3.20;;;;;;;13.60;63.45;100131.38;1710748;83;22222;-73
2022/09/24 06:41:07;;;;;;;15.37;4.30;;;;;;;13.60;63.44;100135.40;1711824;83;21202;-74
2022/09/24 06:43:33;;;;;;;11.23;3.90;;;;;;;13.60;63.28;100135.94;1712025;83;21693;-72
2022/09/24 06:46:00;;;;;;;18.53;4.73;;;;;;;13.61;63.25;100137.53;1703476;83;21398;-74
2022/09/24 06:48:27;;;;;;;65.17;11.47;;;;;;;13.65;63.33;100139.89;1690685;84;21123;-74
2022/09/24 06:50:55;;;;;;;24.70;5.63;;;;;;;13.66;63.29;100138.83;1696525;83;21287;-72
2022/09/24 06:53:21;;;;;;;5.20;3.10;;;;;;;13.74;63.18;100142.75;1710305;83;21304;-72
2022/09/24 06:55:48;;;;;;;8.47;3.73;;;;;;;13.75;62.79;100146.47;1712322;83;21378;-72
2022/09/24 06:58:22;;;;;;;6.93;3.33;;;;;;;13.80;62.44;100143.73;1712091;83;21300;-73
2022/09/24 07:00:57;;;;;;;10.73;3.27;;;;;;;13.89;62.23;100151.95;1712106;83;21371;-74
2022/09/24 07:03:23;;;;;;;16.43;4.23;;;;;;;14.00;61.91;100149.92;1715108;83;21414;-74
2022/09/24 07:05:49;;;;;;;4.43;3.00;;;;;;;14.18;61.39;100151.00;1715259;83;21254;-75
2022/09/24 07:08:16;;;;;;;4.13;2.60;;;;;;;14.18;61.39;100151.00;1710359;83;21410;-74
2022/09/24 07:10:51;;;;;;;4.93;2.93;;;;;;;14.15;60.38;100156.44;1709722;83;21369;-72
2022/09/24 07:13:22;;;;;;;5.70;3.20;;;;;;;14.15;60.38;100156.44;1694032;83;21332;-73
2022/09/24 07:15:50;;;;;;;4.60;3.00;;;;;;;14.12;60.38;100162.39;1711147;83;22022;-73
2022/09/24 07:18:17;;;;;;;7.20;3.70;;;;;;;14.21;60.49;100159.83;1710550;83;21403;-73
2022/09/24 07:20:44;;;;;;;4.63;3.20;;;;;;;14.27;59.22;100166.18;1710410;83;21532;-73
2022/09/24 07:23:11;;;;;;;3.93;2.73;;;;;;;14.25;59.61;100165.69;1712371;83;21640;-76
2022/09/24 07:25:40;;;;;;;8.73;3.43;;;;;;;14.25;59.61;100165.69;1711747;83;21377;-72
2022/09/24 07:28:11;;;;;;;4.43;2.70;;;;;;;14.28;59.50;100173.17;1710594;83;21580;-75
2022/09/24 07:30:39;;;;;;;8.37;2.83;;;;;;;14.28;59.50;100173.17;1712407;83;21363;-74
2022/09/24 07:33:06;;;;;;;3.87;2.93;;;;;;;14.33;59.45;100179.55;1711494;83;21971;-74
2022/09/24 07:35:33;;;;;;;5.47;2.97;;;;;;;14.32;59.11;100170.70;1711141;83;21472;-73
2022/09/24 07:38:02;;;;;;;3.97;3.10;;;;;;;14.31;58.22;100169.08;1711351;83;21458;-74
2022/09/24 07:40:29;;;;;;;4.20;2.77;;;;;;;14.33;58.67;100170.16;1711485;83;21536;-73
2022/09/24 07:42:57;;;;;;;3.57;2.70;;;;;;;14.33;58.67;100170.16;1711123;83;21546;-73
2022/09/24 07:45:32;;;;;;;6.53;3.17;;;;;;;14.36;58.92;100175.73;1711273;83;22217;-74
2022/09/24 07:48:02;;;;;;;4.27;2.97;;;;;;;14.46;58.65;100173.45;1710906;83;21412;-73
2022/09/24 07:50:32;;;;;;;5.73;3.20;;;;;;;14.48;58.42;100172.07;1689436;83;21439;-73
2022/09/24 07:52:59;;;;;;;6.03;3.13;;;;;;;14.54;58.28;100187.06;1692637;83;21561;-72
2022/09/24 07:55:26;;;;;;;4.37;3.23;;;;;;;14.61;57.96;100179.97;1714301;83;21423;-74
2022/09/24 07:57:54;;;;;;;4.00;2.50;;;;;;;14.80;57.99;100180.47;1714152;83;21905;-74
2022/09/24 08:00:22;;;;;;;5.30;2.90;;;;;;;14.80;57.99;100180.47;1713995;83;22078;-74
2022/09/24 08:02:49;;;;;;;5.97;2.70;;;;;;;15.00;57.52;100186.32;1696255;83;22324;-74
2022/09/24 08:05:16;;;;;;;4.20;2.70;;;;;;;15.17;56.20;100179.03;1660862;85;21533;-74
2022/09/24 08:07:55;;;;;;;6.00;2.70;;;;;;;15.17;56.20;100179.03;1703086;83;21567;-72
2022/09/24 08:10:23;;;;;;;3.43;2.40;;;;;;;15.20;55.43;100184.34;1691809;83;21710;-73
2022/09/24 08:12:50;;;;;;;2.93;2.17;;;;;;;15.33;55.24;100184.11;1697255;83;21591;-72
2022/09/24 08:15:17;;;;;;;3.30;2.40;;;;;;;15.51;54.99;100175.16;1690443;85;21620;-73
2022/09/24 08:17:43;;;;;;;4.50;3.07;;;;;;;15.51;54.99;100175.16;1709840;83;21852;-73
2022/09/24 08:20:11;;;;;;;3.60;2.63;;;;;;;15.65;54.47;100185.38;1710488;83;21575;-73
2022/09/24 08:22:38;;;;;;;5.13;2.93;;;;;;;15.67;54.57;100189.16;1712670;83;21524;-74
2022/09/24 08:25:05;;;;;;;5.80;2.90;;;;;;;15.67;54.57;100189.16;1712164;83;21739;-73
2022/09/24 08:27:35;;;;;;;4.33;2.80;;;;;;;15.56;54.86;100189.06;1711121;83;21837;-73
2022/09/24 08:30:03;;;;;;;12.60;3.17;;;;;;;15.53;54.64;100196.38;1711733;83;21749;-74
2022/09/24 08:32:30;;;;;;;25.23;4.87;;;;;;;15.54;54.58;100190.72;1709427;83;22101;-73
2022/09/24 08:34:56;;;;;;;6.60;2.80;;;;;;;15.56;54.25;100189.85;1711280;83;21743;-74
2022/09/24 08:37:23;;;;;;;4.50;2.50;;;;;;;15.53;53.47;100191.83;1710834;83;22307;-74
2022/09/24 08:39:50;;;;;;;3.53;2.30;;;;;;;15.55;53.17;100190.95;1708254;83;21770;-73
2022/09/24 08:42:40;;;;;;;4.23;2.30;;;;;;;15.65;53.52;100190.76;1711608;83;22261;-72
2022/09/24 08:48:01;;;;;;;3.70;2.47;;;;;;;15.98;52.59;100192.56;1709856;83;21751;-73
2022/09/24 08:50:30;;;;;;;4.00;2.23;;;;;;;16.08;51.83;100187.75;1711082;83;21746;-73
2022/09/24 08:53:25;;;;;;;3.40;2.30;;;;;;;16.11;51.96;100192.53;1713783;83;21698;-73
2022/09/24 08:55:55;;;;;;;3.73;2.30;;;;;;;16.17;52.05;100195.37;1714468;83;21855;-73
2022/09/24 08:58:36;;;;;;;3.60;2.37;;;;;;;16.17;51.33;100189.19;1675798;83;21709;-73
2022/09/24 09:01:20;;;;;;;3.00;2.00;;;;;;;16.13;50.77;100196.29;1673735;85;26460;-74
2022/09/24 09:04:18;;;;;;;3.30;2.10;;;;;;;16.10;50.36;100186.11;1708300;83;21071;-72
2022/09/24 09:07:18;;;;;;;4.47;2.10;;;;;;;16.07;49.87;100190.20;1710713;83;21797;-74
2022/09/24 09:09:57;;;;;;;3.37;1.93;;;;;;;16.09;49.92;100190.71;1703383;83;21766;-74
2022/09/24 09:12:41;;;;;;;2.83;2.10;;;;;;;16.12;49.89;100186.59;1708829;83;21691;-74
2022/09/24 09:15:15;;;;;;;3.47;1.90;;;;;;;16.17;49.79;100180.55;1710751;83;21106;-73
2022/09/24 09:17:50;;;;;;;3.37;2.10;;;;;;;16.27;49.57;100186.81;1712551;83;21789;-72
2022/09/24 09:20:23;;;;;;;3.97;2.20;;;;;;;16.30;49.19;100195.09;1712168;83;21711;-72
2022/09/24 09:22:52;;;;;;;2.83;1.90;;;;;;;16.32;48.87;100181.30;1709828;83;21722;-74
2022/09/24 09:25:23;;;;;;;2.57;1.80;;;;;;;16.32;49.20;100181.30;1711211;83;21789;-74
2022/09/24 09:28:00;;;;;;;2.70;1.37;;;;;;;16.36;48.71;100183.66;1712111;83;21663;-74
2022/09/24 09:30:32;;;;;;;3.27;2.00;;;;;;;16.41;48.42;100176.78;1707665;83;21074;-74
2022/09/24 09:33:28;;;;;;;2.85;2.05;;;;;;;16.46;48.20;100171.28;1710353;83;21747;-74
2022/09/24 09:36:18;;;;;;;2.97;1.90;;;;;;;16.47;47.85;100180.16;1712030;83;21216;-72
2022/09/24 09:39:23;;;;;;;5.20;2.30;;;;;;;16.37;47.83;100171.76;1711512;83;21413;-73
2022/09/24 09:42:04;;;;;;;3.10;1.70;;;;;;;16.37;47.83;100171.76;1707820;83;21059;-75
2022/09/24 09:44:40;;;;;;;3.03;2.00;;;;;;;16.16;49.20;100178.17;1707152;83;21790;-73
2022/09/24 09:47:39;;;;;;;4.07;2.10;;;;;;;16.16;49.20;100178.17;1708484;83;21057;-73
2022/09/24 09:50:39;;;;;;;2.90;2.03;;;;;;;16.14;49.49;100170.93;1711235;83;21762;-74
2022/09/24 09:53:21;;;;;;;12.03;2.63;;;;;;;16.11;49.59;100187.14;1708353;83;21860;-74
2022/09/24 09:56:03;;;;;;;44.17;6.80;;;;;;;15.93;49.75;100173.28;1708897;83;22276;-74
2022/09/24 09:58:35;;;;;;;26.63;5.20;;;;;;;15.85;50.35;100178.02;1709992;83;21815;-74
2022/09/24 10:01:14;;;;;;;10.13;2.73;;;;;;;15.85;50.65;100180.15;1709315;83;22203;-74
2022/09/24 10:03:51;;;;;;;20.47;3.90;;;;;;;15.94;50.94;100180.25;1712223;83;21712;-73
2022/09/24 10:06:29;;;;;;;74.73;8.63;;;;;;;15.91;50.53;100184.34;1710140;83;21748;-74
2022/09/24 10:09:19;;;;;;;71.53;8.80;;;;;;;15.90;50.67;100182.75;1710896;83;21809;-72
2022/09/24 10:11:46;;;;;;;3.70;1.40;;;;;;;15.82;50.20;100197.46;1712174;83;21853;-73
2022/09/24 10:14:17;;;;;;;6.17;1.23;;;;;;;15.62;48.71;100183.28;1711973;83;21842;-73
2022/09/24 10:16:46;;;;;;;71.33;8.53;;;;;;;15.51;49.21;100200.73;1712380;83;21715;-74
2022/09/24 10:19:25;;;;;;;80.37;10.20;;;;;;;15.43;50.04;100182.57;1709916;83;21789;-73
2022/09/24 10:21:54;;;;;;;55.53;8.17;;;;;;;15.40;51.22;100187.20;1709643;83;21715;-73
2022/09/24 10:24:24;;;;;;;80.03;9.87;;;;;;;15.30;52.03;100190.91;1712977;83;21768;-73
2022/09/24 10:26:51;;;;;;;10.93;2.53;;;;;;;15.07;51.83;100192.66;1714148;83;22221;-74
2022/09/24 10:32:18;;;;;;;2.77;1.67;;;;;;;14.97;51.62;100204.39;1713570;83;22143;-73
2022/09/24 10:35:04;;;;;;;2.60;1.50;;;;;;;14.84;51.91;100184.16;1714232;83;21782;-74
2022/09/24 10:37:31;;;;;;;3.67;1.70;;;;;;;14.81;52.19;100187.43;1714592;83;21769;-73
2022/09/24 10:40:00;;;;;;;2.10;1.43;;;;;;;14.83;52.48;100178.53;1714261;83;21770;-74
2022/09/24 10:42:29;;;;;;;3.20;1.70;;;;;;;14.88;52.84;100185.98;1714825;83;22095;-73
2022/09/24 10:45:00;;;;;;;5.30;2.20;;;;;;;14.93;53.09;100187.77;1714352;83;22115;-75
2022/09/24 10:47:38;;;;;;;4.37;2.07;;;;;;;14.98;53.82;100193.08;1713463;83;22292;-74
2022/09/24 10:50:33;;;;;;;5.43;2.40;;;;;;;15.04;54.26;100181.14;1661494;85;22022;-73
2022/09/24 10:53:07;;;;;;;4.77;1.80;;;;;;;15.07;53.45;100198.04;1680358;85;21533;-72
2022/09/24 10:56:05;;;;;;;11.60;2.90;;;;;;;15.04;54.58;100193.25;1680134;85;21790;-75
2022/09/24 10:59:06;;;;;;;4.00;2.60;;;;;;;15.25;55.06;100187.75;1680828;85;21568;-72
2022/09/24 11:01:59;;;;;;;4.75;2.87;;;;;;;15.25;55.06;100187.75;1680430;85;21700;-74
2022/09/24 11:04:56;;;;;;;3.55;2.55;;;;;;;15.66;55.29;100182.98;1657787;85;20996;-74
2022/09/24 11:07:41;;;;;;;3.60;2.50;;;;;;;15.97;53.76;100193.12;1653040;86;21083;-75
2022/09/24 11:10:35;;;;;;;4.10;2.43;;;;;;;16.27;54.08;100188.95;1652808;86;21759;-76
2022/09/24 11:13:45;;;;;;;3.70;2.20;;;;;;;16.66;53.11;100187.53;1652741;86;21798;-73
2022/09/24 11:16:37;;;;;;;3.70;2.17;;;;;;;16.85;50.83;100184.68;1652504;86;21794;-76
2022/09/24 11:19:41;;;;;;;4.57;2.27;;;;;;;16.85;50.83;100184.68;1652875;86;21032;-77
2022/09/24 11:22:14;;;;;;;3.58;2.27;;;;;;;16.78;51.57;100190.52;1653244;86;21740;-74
2022/09/24 11:25:08;;;;;;;3.97;2.30;;;;;;;16.56;52.40;100193.17;1652720;86;21289;-75
2022/09/24 11:28:04;;;;;;;3.10;1.90;;;;;;;16.09;52.87;100181.80;1652773;86;21748;-73
2022/09/24 11:31:00;;;;;;;4.73;2.87;;;;;;;16.09;52.87;100181.80;1652835;86;21063;-73
2022/09/24 11:34:09;;;;;;;4.20;2.40;;;;;;;15.99;52.90;100188.23;1653499;84;21707;-74
2022/09/24 11:36:56;;;;;;;4.17;2.87;;;;;;;16.08;52.91;100183.70;1671280;84;21821;-74
2022/09/24 11:40:03;;;;;;;4.33;2.67;;;;;;;16.25;52.22;100178.23;1652773;86;21782;-74
2022/09/24 11:43:05;;;;;;;3.33;1.90;;;;;;;16.44;51.28;100192.91;1680210;85;21812;-75
2022/09/24 11:45:41;;;;;;;4.43;1.60;;;;;;;16.66;49.60;100180.79;1679475;85;21862;-75
2022/09/24 11:48:31;;;;;;;3.13;1.70;;;;;;;16.70;48.64;100185.02;1677877;85;21777;-75
2022/09/24 11:51:25;;;;;;;3.70;1.62;;;;;;;16.67;48.37;100192.37;1677163;85;26523;-73
2022/09/24 11:54:03;;;;;;;3.22;1.82;;;;;;;16.56;48.43;100188.56;1652797;85;21426;-75
2022/09/24 11:56:34;;;;;;;2.47;1.60;;;;;;;16.47;47.70;100176.91;1647163;87;21098;-75
2022/09/24 11:59:41;;;;;;;3.15;1.70;;;;;;;16.34;47.79;100177.76;1647248;87;21869;-74